Terminal Aerodrome Forecast
Issued by NWS Wilmington, OH

Current Version | Previous Version | Graphics & Text | Print | Product List | Glossary On
Versions: 1 2 3 4 5 6 7 8 9 10 11 12 13 14 15 16 17 18 19 20 21 22 23 24 25 26 27 28 29 30 31
858
FTUS41 KILN 280544
TAFDAY
TAF
KDAY 280544Z 2806/2906 19008KT P6SM SCT080 BKN200
     FM281100 18008KT P6SM -SHRA VCTS SCT050CB OVC080
      TEMPO 2811/2815 4SM TSRA BR OVC050CB
     FM281800 21010KT 4SM -TSRA BR OVC050CB
     FM282100 25006KT P6SM VCSH OVC050
     FM282300 34004KT P6SM BKN040
     FM290400 VRB03KT 4SM BR BKN020=

USA.gov is the U.S. government's official web portal to all federal, state and local government web resources and services.